createdAt,value
2019-04-27T00:03:17.743Z,56.00
2019-04-27T00:08:53.540Z,57.00
2019-04-27T00:11:30.940Z,57.90
2019-04-27T00:14:04.347Z,58.10
2019-04-27T00:16:54.205Z,57.80
2019-04-27T00:22:36.733Z,60.00
2019-04-27T00:27:49.658Z,60.80
2019-04-27T00:30:21.087Z,61.60
2019-04-27T00:47:03.579Z,63.30
2019-04-27T00:49:38.290Z,62.50
2019-04-27T00:52:48.183Z,63.20
2019-04-27T00:55:26.815Z,63.90
2019-04-27T01:01:04.040Z,65.30
2019-04-27T01:03:35.433Z,66.00
2019-04-27T01:06:07.138Z,65.80
2019-04-27T01:08:39.534Z,65.80
2019-04-27T01:11:16.280Z,66.60
2019-04-27T01:13:50.432Z,67.40
2019-04-27T01:19:14.614Z,67.50
2019-04-27T01:21:45.782Z,66.10
2019-04-27T01:24:33.709Z,66.00
2019-04-27T01:27:21.558Z,66.50
2019-04-27T01:32:52.877Z,66.40
2019-04-27T01:35:26.184Z,65.30
2019-04-27T01:40:56.144Z,67.10
2019-04-27T01:43:28.524Z,66.20
2019-04-27T01:46:02.141Z,66.40
2019-04-27T01:48:31.694Z,66.50
2019-04-27T01:51:14.287Z,65.50
2019-04-27T01:53:52.604Z,65.90
2019-04-27T01:56:26.607Z,66.20
2019-04-27T01:58:59.395Z,64.40
2019-04-27T02:02:00.552Z,63.80
2019-04-27T02:04:46.802Z,63.30
2019-04-27T02:07:32.821Z,63.50
2019-04-27T02:10:03.407Z,65.30
2019-04-27T02:13:10.067Z,68.20
2019-04-27T02:15:43.094Z,69.60
2019-04-27T02:21:10.736Z,68.20
2019-04-27T02:23:45.189Z,69.50
2019-04-27T02:26:17.170Z,70.30
2019-04-27T02:28:53.693Z,71.00
2019-04-27T02:31:45.972Z,71.40
2019-04-27T02:37:20.017Z,71.60
2019-04-27T02:39:56.109Z,72.40
2019-04-27T02:42:30.580Z,72.30
2019-04-27T02:45:03.973Z,72.40
2019-04-27T02:47:40.803Z,71.90
2019-04-27T02:50:15.409Z,71.70
2019-04-27T02:52:46.927Z,72.40
2019-04-27T02:55:29.524Z,71.50
2019-04-27T02:58:04.544Z,71.40
2019-04-27T03:00:39.984Z,71.20
2019-04-27T03:03:10.392Z,72.00
2019-04-27T03:05:43.290Z,72.80
2019-04-27T03:08:15.733Z,73.10
2019-04-27T03:10:50.681Z,74.60
2019-04-27T03:13:21.908Z,75.10
2019-04-27T03:15:54.126Z,74.40
2019-04-27T03:18:44.475Z,72.50
2019-04-27T03:21:21.923Z,73.50
2019-04-27T03:23:54.024Z,73.00
2019-04-27T03:26:27.027Z,73.10
2019-04-27T03:29:01.016Z,71.30
2019-04-27T03:31:37.498Z,69.90
2019-04-27T03:34:15.964Z,68.60
2019-04-27T03:36:40.792Z,66.80
2019-04-27T03:39:14.242Z,65.80
2019-04-27T03:41:55.140Z,66.60
2019-04-27T03:44:32.159Z,67.50
2019-04-27T03:50:00.107Z,69.60
2019-04-27T03:52:34.470Z,70.70
2019-04-27T03:55:19.792Z,72.00
2019-04-27T03:57:52.628Z,72.00
2019-04-27T04:00:26.364Z,72.30
2019-04-27T04:02:57.104Z,72.90
2019-04-27T04:05:29.906Z,72.90
2019-04-27T04:08:00.420Z,73.90
2019-04-27T04:10:32.667Z,72.60
2019-04-27T04:13:22.220Z,72.10
2019-04-27T04:15:59.963Z,70.90
2019-04-27T04:18:31.731Z,70.20
2019-04-27T04:21:01.636Z,69.20
2019-04-27T04:23:34.670Z,67.50
2019-04-27T04:26:10.277Z,67.40
2019-04-27T04:28:52.781Z,67.20
2019-04-27T04:31:26.419Z,68.70
2019-04-27T04:34:00.005Z,68.80
2019-04-27T04:36:33.485Z,69.20
2019-04-27T04:39:12.276Z,70.00
2019-04-27T04:42:01.590Z,69.70
2019-04-27T04:44:39.743Z,68.90
2019-04-27T04:47:25.319Z,70.50
2019-04-27T04:50:11.169Z,71.00
2019-04-27T04:52:39.593Z,72.80
2019-04-27T04:55:13.365Z,72.50
2019-04-27T04:57:49.188Z,72.20
2019-04-27T05:00:21.141Z,71.40
2019-04-27T05:03:03.451Z,71.50
2019-04-27T05:05:34.981Z,71.70
2019-04-27T05:08:04.987Z,75.60
2019-04-27T05:10:39.330Z,73.60
2019-04-27T05:13:09.431Z,71.80
2019-04-27T05:15:41.781Z,72.80
2019-04-27T05:18:14.169Z,73.40
2019-04-27T05:20:48.831Z,75.50
2019-04-27T05:23:20.706Z,76.50
2019-04-27T05:25:52.201Z,77.00
2019-04-27T05:28:25.260Z,76.00
2019-04-27T05:30:58.705Z,75.80
2019-04-27T05:33:29.050Z,76.50
2019-04-27T05:35:59.216Z,76.20
2019-04-27T05:38:33.730Z,76.90
2019-04-27T05:41:18.586Z,76.50
2019-04-27T05:44:03.266Z,76.70
2019-04-27T05:46:51.147Z,78.10
2019-04-27T05:49:25.457Z,78.30
2019-04-27T05:51:57.145Z,78.20
2019-04-27T05:54:29.275Z,79.40
2019-04-27T05:57:02.633Z,76.50
2019-04-27T05:59:34.705Z,75.70
2019-04-27T06:02:06.504Z,75.80
2019-04-27T06:04:36.838Z,75.00
2019-04-27T06:07:09.110Z,74.60
2019-04-27T06:09:41.738Z,74.30
2019-04-27T06:12:12.779Z,74.30
2019-04-27T06:14:44.826Z,74.40
2019-04-27T06:17:21.393Z,74.00
2019-04-27T06:19:52.698Z,76.90
2019-04-27T06:22:25.017Z,78.00
2019-04-27T06:24:57.350Z,78.90
2019-04-27T06:27:31.081Z,74.50
2019-04-27T06:30:06.695Z,73.80
2019-04-27T06:32:36.942Z,76.90
2019-04-27T06:35:12.991Z,80.00
2019-04-27T06:37:45.183Z,80.60
2019-04-27T06:40:15.503Z,80.40
2019-04-27T06:42:48.642Z,79.80
2019-04-27T06:45:21.799Z,81.00
2019-04-27T06:47:54.037Z,81.30
2019-04-27T06:50:24.085Z,80.90
2019-04-27T06:52:58.924Z,81.10
2019-04-27T06:55:32.090Z,81.40
2019-04-27T06:58:04.421Z,79.40
2019-04-27T07:00:39.547Z,79.00
2019-04-27T07:03:11.462Z,80.40
2019-04-27T07:05:48.593Z,78.80
2019-04-27T07:08:25.097Z,78.50
2019-04-27T07:10:58.815Z,76.90
2019-04-27T07:13:33.804Z,74.30
2019-04-27T07:16:11.304Z,71.90
2019-04-27T07:18:42.124Z,72.00
2019-04-27T07:21:18.918Z,72.00
2019-04-27T07:24:10.638Z,72.50
2019-04-27T07:26:40.275Z,74.20
2019-04-27T07:29:19.803Z,74.90
2019-04-27T07:31:52.721Z,76.00
2019-04-27T07:34:23.773Z,77.30
2019-04-27T07:36:55.792Z,78.30
2019-04-27T07:39:29.679Z,77.30
2019-04-27T07:42:04.203Z,77.40
2019-04-27T07:44:34.767Z,77.70
2019-04-27T07:47:24.362Z,76.90
2019-04-27T07:50:01.491Z,76.20
2019-04-27T07:52:31.798Z,74.60
2019-04-27T07:55:01.102Z,72.00
2019-04-27T07:57:30.084Z,70.40
2019-04-27T08:00:06.921Z,70.00
2019-04-27T08:02:36.678Z,68.50
2019-04-27T08:05:19.102Z,70.30
2019-04-27T08:07:49.110Z,69.10
2019-04-27T08:10:21.037Z,66.60
2019-04-27T08:12:49.971Z,64.10
2019-04-27T08:15:21.835Z,63.50
2019-04-27T08:17:51.673Z,62.90
2019-04-27T08:20:36.100Z,64.60
2019-04-27T08:23:10.962Z,68.20
2019-04-27T08:25:41.391Z,68.50
2019-04-27T08:28:18.763Z,70.10
2019-04-27T08:30:52.592Z,70.70
2019-04-27T08:33:22.182Z,67.30
2019-04-27T08:35:52.331Z,63.90
2019-04-27T08:38:22.005Z,61.00
2019-04-27T08:40:53.589Z,57.60
2019-04-27T08:43:24.806Z,57.10
2019-04-27T08:45:54.302Z,56.30
2019-04-27T08:48:39.504Z,57.10
2019-04-27T08:51:10.192Z,58.80
2019-04-27T08:53:39.912Z,57.60
2019-04-27T08:56:36.295Z,59.40
2019-04-27T08:59:09.937Z,59.60
2019-04-27T09:01:39.693Z,59.60
2019-04-27T09:04:20.298Z,62.90
2019-04-27T09:06:46.621Z,63.50
2019-04-27T09:09:34.257Z,64.10
2019-04-27T09:12:19.760Z,62.90
2019-04-27T09:14:51.837Z,61.40
2019-04-27T09:17:31.749Z,60.40
2019-04-27T09:20:07.117Z,60.30
2019-04-27T09:22:41.821Z,60.80
2019-04-27T09:25:11.230Z,60.90
2019-04-27T09:27:49.135Z,61.80
2019-04-27T09:30:16.440Z,62.80
2019-04-27T09:32:45.635Z,64.60
2019-04-27T09:35:16.698Z,64.60
2019-04-27T09:37:47.198Z,63.20
2019-04-27T09:40:21.115Z,62.10
2019-04-27T09:42:57.018Z,61.00
2019-04-27T09:45:27.087Z,61.10
2019-04-27T09:48:02.130Z,60.00
2019-04-27T09:50:31.176Z,59.90
2019-04-27T09:53:00.633Z,60.30
2019-04-27T09:55:30.591Z,61.80
2019-04-27T09:58:02.205Z,62.60
2019-04-27T10:00:38.347Z,61.80
2019-04-27T10:03:09.334Z,63.70
2019-04-27T10:05:38.618Z,63.20
2019-04-27T10:08:09.674Z,64.20
2019-04-27T10:10:38.543Z,66.60
2019-04-27T10:13:13.182Z,64.20
2019-04-27T10:15:52.476Z,65.10
2019-04-27T10:18:22.346Z,65.10
2019-04-27T10:20:59.769Z,62.50
2019-04-27T10:23:24.831Z,65.10
2019-04-27T10:25:55.720Z,64.60
2019-04-27T10:28:27.192Z,61.40
2019-04-27T10:30:58.128Z,59.60
2019-04-27T10:33:29.078Z,60.00
2019-04-27T10:36:01.005Z,62.70
2019-04-27T10:38:34.284Z,59.00
2019-04-27T10:41:07.673Z,57.50
2019-04-27T10:43:42.489Z,55.00
2019-04-27T10:46:15.682Z,56.60
2019-04-27T10:48:45.736Z,55.40
2019-04-27T10:51:16.061Z,58.40
2019-04-27T10:53:46.821Z,55.80
2019-04-27T10:56:15.969Z,58.60
2019-04-27T10:59:38.956Z,57.60
2019-04-27T11:02:12.517Z,56.10
2019-04-27T11:07:36.529Z,56.40
2019-04-27T11:10:08.017Z,55.70
2019-04-27T11:20:17.423Z,55.90
2019-04-27T11:22:47.777Z,55.20
2019-04-27T11:25:22.546Z,56.20
2019-04-27T11:28:35.975Z,55.60
2019-04-27T11:31:06.665Z,56.10
2019-04-27T11:34:11.630Z,54.70
2019-04-27T11:36:42.033Z,53.90
2019-04-27T11:39:59.502Z,54.20
2019-04-27T11:42:32.656Z,53.50
2019-04-27T11:45:56.002Z,53.70
2019-04-27T11:48:36.504Z,53.60
2019-04-27T11:58:06.584Z,50.20
2019-04-27T12:04:08.374Z,53.20
2019-04-27T12:06:49.772Z,60.80
2019-04-27T12:12:18.154Z,59.00
2019-04-27T12:14:48.320Z,57.90
2019-04-27T12:18:12.713Z,60.00
2019-04-27T12:20:41.465Z,63.40
2019-04-27T12:23:47.179Z,61.30
2019-04-27T12:26:27.094Z,60.40
2019-04-27T12:29:25.095Z,57.80
2019-04-27T12:31:56.395Z,56.60
2019-04-27T12:35:11.793Z,54.10
2019-04-27T12:37:51.373Z,53.20
2019-04-27T12:41:17.547Z,52.10
2019-04-27T12:43:49.019Z,51.80
2019-04-27T12:47:02.263Z,53.20
2019-04-27T12:49:28.958Z,51.40
2019-04-27T12:52:48.381Z,52.30
2019-04-27T12:55:38.612Z,51.00
2019-04-27T12:58:29.522Z,50.30
2019-04-27T13:01:08.297Z,50.40
2019-04-27T13:10:51.743Z,47.00
2019-04-27T13:13:22.567Z,48.80
2019-04-27T13:15:51.548Z,48.70
2019-04-27T13:18:22.205Z,48.40
2019-04-27T13:20:51.328Z,48.40
2019-04-27T13:24:02.060Z,48.80
2019-04-27T13:26:23.127Z,49.50
2019-04-27T13:29:28.136Z,48.60
2019-04-27T13:31:59.715Z,47.20
2019-04-27T13:35:07.481Z,49.00
2019-04-27T13:37:38.490Z,48.60
2019-04-27T13:40:45.794Z,48.30
2019-04-27T13:43:23.654Z,47.80
2019-04-27T13:46:40.213Z,48.00
2019-04-27T13:49:28.291Z,46.90
2019-04-27T13:52:00.633Z,46.50
2019-04-27T14:15:51.721Z,46.00
2019-04-27T14:18:29.606Z,48.20
2019-04-27T14:21:24.363Z,45.30
2019-04-27T14:23:56.493Z,45.20
2019-04-27T14:27:20.366Z,45.70
2019-04-27T14:29:59.508Z,43.60
2019-04-27T14:33:01.223Z,43.50
2019-04-27T14:35:30.457Z,44.00
2019-04-27T14:38:47.980Z,44.60
2019-04-27T14:41:19.230Z,43.80
2019-04-27T14:44:39.326Z,43.40
2019-04-27T14:47:12.447Z,43.40
2019-04-27T14:50:18.821Z,44.80
2019-04-27T14:52:49.422Z,44.40
2019-04-27T14:55:38.729Z,44.30
2019-04-27T14:58:08.714Z,44.60
2019-04-27T15:01:25.307Z,44.40
2019-04-27T15:03:55.464Z,44.30
2019-04-27T15:07:08.657Z,44.20
2019-04-27T15:09:38.721Z,44.00
2019-04-27T15:12:43.608Z,45.90
2019-04-27T15:15:14.189Z,45.60
2019-04-27T15:17:50.848Z,45.60
2019-04-27T15:20:27.242Z,48.80
2019-04-27T15:22:56.958Z,53.10
2019-04-27T15:26:01.634Z,52.60
2019-04-27T15:28:36.305Z,55.40
2019-04-27T15:31:33.244Z,54.90
2019-04-27T15:34:23.328Z,54.20
2019-04-27T15:37:44.140Z,51.70
2019-04-27T15:40:23.893Z,51.90
2019-04-27T15:43:45.657Z,49.40
2019-04-27T15:46:18.428Z,48.90
2019-04-27T15:49:17.918Z,48.60
2019-04-27T15:51:54.898Z,45.50
2019-04-27T15:55:31.087Z,45.20
2019-04-27T15:57:46.996Z,44.40
2019-04-27T16:00:56.388Z,45.40
2019-04-27T16:03:27.273Z,45.50
2019-04-27T16:06:38.494Z,45.40
2019-04-27T16:09:16.270Z,47.20
2019-04-27T16:18:50.270Z,51.90
2019-04-27T16:21:20.834Z,55.80
2019-04-27T16:24:17.044Z,58.90
2019-04-27T16:26:46.376Z,58.80
2019-04-27T16:30:11.495Z,57.90
2019-04-27T16:32:50.147Z,59.80
2019-04-27T16:36:09.730Z,56.50
2019-04-27T16:38:47.996Z,55.60
2019-04-27T16:42:14.137Z,52.20
2019-04-27T16:44:49.552Z,51.70
2019-04-27T16:48:21.320Z,51.20
2019-04-27T16:50:55.170Z,51.00
2019-04-27T16:54:19.959Z,54.20
2019-04-27T16:56:53.372Z,55.30
2019-04-27T17:00:13.598Z,54.30
2019-04-27T17:02:49.131Z,53.70
2019-04-27T17:06:08.920Z,53.90
2019-04-27T17:08:43.852Z,53.70
2019-04-27T17:11:43.833Z,51.00
2019-04-27T17:14:35.078Z,51.10
2019-04-27T17:17:47.102Z,51.00
2019-04-27T17:20:28.045Z,52.00
2019-04-27T17:23:35.980Z,52.20
2019-04-27T17:26:21.135Z,51.90
2019-04-27T17:29:10.992Z,51.20
2019-04-27T17:31:42.270Z,50.40
2019-04-27T17:34:45.377Z,50.70
2019-04-27T17:37:18.721Z,51.10
2019-04-27T17:40:19.970Z,51.00
2019-04-27T17:42:54.469Z,51.20
2019-04-27T17:46:07.459Z,51.30
2019-04-27T17:48:38.557Z,51.60
2019-04-27T17:51:19.400Z,52.50
2019-04-27T17:53:51.414Z,53.20
2019-04-27T17:56:54.128Z,53.10
2019-04-27T17:59:25.029Z,53.00
2019-04-27T18:02:12.713Z,53.20
2019-04-27T18:04:58.707Z,53.10
2019-04-27T18:08:20.422Z,52.50
2019-04-27T18:11:00.173Z,51.20
2019-04-27T18:13:44.813Z,50.60
2019-04-27T18:16:19.078Z,50.10
2019-04-27T18:19:49.740Z,51.30
2019-04-27T18:22:36.595Z,51.60
2019-04-27T18:28:50.572Z,52.30
2019-04-27T18:32:04.476Z,52.10
2019-04-27T18:34:39.406Z,51.90
2019-04-27T18:37:57.836Z,51.80
2019-04-27T18:40:33.598Z,52.60
2019-04-27T18:43:35.016Z,53.20
2019-04-27T18:46:09.655Z,53.30
2019-04-27T18:49:35.230Z,52.80
2019-04-27T18:52:09.372Z,52.40
2019-04-27T18:55:32.322Z,51.80
2019-04-27T18:58:11.946Z,52.60
2019-04-27T19:01:30.435Z,53.00
2019-04-27T19:04:03.384Z,53.30
2019-04-27T19:13:38.164Z,53.20
2019-04-27T19:16:14.383Z,53.50
2019-04-27T19:21:48.641Z,55.60
2019-04-27T19:24:20.527Z,55.30
2019-04-27T19:27:15.265Z,57.40
2019-04-27T19:29:56.716Z,57.20
2019-04-27T19:35:23.701Z,58.90
2019-04-27T19:38:08.075Z,58.90
2019-04-27T19:40:49.094Z,58.00
2019-04-27T19:43:26.014Z,56.40
2019-04-27T19:46:32.913Z,56.20
2019-04-27T19:49:15.195Z,56.60
2019-04-27T19:54:49.468Z,54.00
2019-04-27T19:57:31.743Z,54.40
2019-04-27T20:00:03.665Z,54.20
2019-04-27T20:02:37.997Z,54.70
2019-04-27T20:05:18.712Z,54.40
2019-04-27T20:10:43.742Z,54.70
2019-04-27T20:13:19.854Z,57.10
2019-04-27T20:16:00.843Z,56.00
2019-04-27T20:18:32.181Z,55.70
2019-04-27T20:28:03.172Z,54.10
2019-04-27T20:30:44.713Z,52.50
2019-04-27T20:34:08.462Z,54.40
2019-04-27T20:36:41.500Z,53.10
2019-04-27T20:39:13.184Z,53.60
2019-04-27T20:41:45.152Z,52.70
2019-04-27T20:44:26.056Z,52.80
2019-04-27T20:47:01.234Z,52.20
2019-04-27T20:49:39.092Z,54.50
2019-04-27T20:55:11.330Z,53.00
2019-04-27T20:57:43.461Z,53.00
2019-04-27T21:00:35.817Z,52.50
2019-04-27T21:03:11.762Z,52.40
2019-04-27T21:06:01.067Z,52.40
2019-04-27T21:09:11.765Z,52.00
2019-04-27T21:11:52.189Z,51.80
2019-04-27T21:14:25.563Z,52.10
2019-04-27T21:17:35.495Z,52.40
2019-04-27T21:20:11.372Z,52.20
2019-04-27T21:22:43.315Z,52.30
2019-04-27T21:25:26.291Z,52.10
2019-04-27T21:28:15.385Z,52.00
2019-04-27T21:33:40.844Z,51.90
2019-04-27T21:36:21.841Z,52.20
2019-04-27T21:39:53.192Z,52.70
2019-04-27T21:42:24.347Z,52.20
2019-04-27T21:47:51.771Z,51.40
2019-04-27T21:53:31.189Z,51.20
2019-04-27T21:56:01.536Z,51.60
2019-04-27T21:58:33.334Z,51.60
2019-04-27T22:01:16.389Z,51.80
2019-04-27T22:04:20.300Z,51.20
2019-04-27T22:06:55.657Z,51.80
2019-04-27T22:09:25.129Z,51.60
2019-04-27T22:12:41.600Z,51.50
2019-04-27T22:15:11.107Z,51.30
2019-04-27T22:17:40.213Z,51.10
2019-04-27T22:20:23.333Z,50.90
2019-04-27T22:23:10.658Z,50.40
2019-04-27T22:28:46.154Z,50.30
2019-04-27T22:33:58.814Z,50.60
2019-04-27T22:39:31.013Z,48.90
2019-04-27T22:45:01.159Z,51.20
2019-04-27T22:47:34.693Z,51.10
2019-04-27T22:50:12.389Z,51.80
2019-04-27T22:52:44.443Z,53.30
2019-04-27T22:55:14.544Z,53.30
2019-04-27T22:57:47.072Z,52.80
2019-04-27T23:00:31.527Z,52.80
2019-04-27T23:03:47.676Z,52.60
2019-04-27T23:06:21.612Z,52.60
2019-04-27T23:08:56.353Z,54.60
2019-04-27T23:12:17.217Z,52.80
2019-04-27T23:14:56.689Z,53.40
2019-04-27T23:20:32.030Z,54.20
2019-04-27T23:23:44.197Z,54.80
2019-04-27T23:26:23.124Z,52.90
2019-04-27T23:29:12.310Z,52.80
2019-04-27T23:31:38.214Z,52.60
2019-04-27T23:36:56.834Z,52.40
2019-04-27T23:39:28.482Z,52.50
2019-04-27T23:42:31.871Z,52.50
2019-04-27T23:45:07.962Z,52.70
2019-04-27T23:47:39.093Z,52.50
2019-04-27T23:50:12.089Z,52.50
2019-04-27T23:55:48.264Z,52.30
2019-04-27T23:58:21.386Z,52.10
